sensor_id;sensor_type;location;lat;lon;timestamp;P1;durP1;ratioP1;P2;durP2;ratioP2
1693;SDS011;844;47.058;15.472;2023-01-01T00:01:27;62.90;;;49.17;;
1693;SDS011;844;47.058;15.472;2023-01-01T00:03:57;64.00;;;47.00;;
1693;SDS011;844;47.058;15.472;2023-01-01T00:06:27;61.17;;;44.73;;
1693;SDS011;844;47.058;15.472;2023-01-01T00:08:58;52.37;;;40.30;;
1693;SDS011;844;47.058;15.472;2023-01-01T00:11:51;50.27;;;37.57;;
1693;SDS011;844;47.058;15.472;2023-01-01T00:14:21;45.57;;;35.80;;
1693;SDS011;844;47.058;15.472;2023-01-01T00:16:52;43.67;;;38.10;;
1693;SDS011;844;47.058;15.472;2023-01-01T00:19:23;43.90;;;39.20;;
1693;SDS011;844;47.058;15.472;2023-01-01T00:21:53;44.17;;;37.30;;
1693;SDS011;844;47.058;15.472;2023-01-01T00:24:23;46.83;;;37.97;;
1693;SDS011;844;47.058;15.472;2023-01-01T00:26:54;51.97;;;37.57;;
1693;SDS011;844;47.058;15.472;2023-01-01T00:29:24;44.50;;;36.60;;
1693;SDS011;844;47.058;15.472;2023-01-01T00:31:54;43.13;;;34.90;;
1693;SDS011;844;47.058;15.472;2023-01-01T00:34:24;45.23;;;37.10;;
1693;SDS011;844;47.058;15.472;2023-01-01T00:36:54;42.07;;;34.70;;
1693;SDS011;844;47.058;15.472;2023-01-01T00:39:25;37.30;;;33.50;;
1693;SDS011;844;47.058;15.472;2023-01-01T00:41:58;48.40;;;37.77;;
1693;SDS011;844;47.058;15.472;2023-01-01T00:44:28;44.00;;;34.43;;
1693;SDS011;844;47.058;15.472;2023-01-01T00:46:58;41.27;;;35.20;;
1693;SDS011;844;47.058;15.472;2023-01-01T00:49:28;40.80;;;34.03;;
1693;SDS011;844;47.058;15.472;2023-01-01T00:51:58;40.87;;;35.20;;
1693;SDS011;844;47.058;15.472;2023-01-01T00:54:28;35.70;;;30.83;;
1693;SDS011;844;47.058;15.472;2023-01-01T00:56:59;37.40;;;33.03;;
1693;SDS011;844;47.058;15.472;2023-01-01T00:59:30;36.00;;;30.63;;
1693;SDS011;844;47.058;15.472;2023-01-01T01:02:00;33.10;;;28.60;;
1693;SDS011;844;47.058;15.472;2023-01-01T01:04:30;32.87;;;26.60;;
1693;SDS011;844;47.058;15.472;2023-01-01T01:07:01;29.60;;;24.10;;
1693;SDS011;844;47.058;15.472;2023-01-01T01:09:31;31.77;;;26.60;;
1693;SDS011;844;47.058;15.472;2023-01-01T01:12:02;30.10;;;27.00;;
1693;SDS011;844;47.058;15.472;2023-01-01T01:14:44;30.50;;;26.87;;
1693;SDS011;844;47.058;15.472;2023-01-01T01:17:14;31.73;;;26.50;;
1693;SDS011;844;47.058;15.472;2023-01-01T01:19:44;34.47;;;27.20;;
1693;SDS011;844;47.058;15.472;2023-01-01T01:22:14;48.93;;;38.63;;
1693;SDS011;844;47.058;15.472;2023-01-01T01:24:54;51.90;;;40.67;;
1693;SDS011;844;47.058;15.472;2023-01-01T01:27:25;50.70;;;40.30;;
1693;SDS011;844;47.058;15.472;2023-01-01T01:29:55;50.07;;;41.13;;
1693;SDS011;844;47.058;15.472;2023-01-01T01:32:25;54.13;;;45.27;;
1693;SDS011;844;47.058;15.472;2023-01-01T01:34:55;52.00;;;42.57;;
1693;SDS011;844;47.058;15.472;2023-01-01T01:37:25;51.60;;;41.17;;
1693;SDS011;844;47.058;15.472;2023-01-01T01:39:55;57.33;;;46.20;;
1693;SDS011;844;47.058;15.472;2023-01-01T01:42:27;54.43;;;43.13;;
1693;SDS011;844;47.058;15.472;2023-01-01T01:44:57;58.70;;;48.90;;
1693;SDS011;844;47.058;15.472;2023-01-01T01:47:30;57.13;;;48.43;;
1693;SDS011;844;47.058;15.472;2023-01-01T01:50:03;60.07;;;49.80;;
1693;SDS011;844;47.058;15.472;2023-01-01T01:52:38;71.33;;;51.00;;
1693;SDS011;844;47.058;15.472;2023-01-01T01:55:12;65.47;;;47.40;;
1693;SDS011;844;47.058;15.472;2023-01-01T01:57:44;63.20;;;51.10;;
1693;SDS011;844;47.058;15.472;2023-01-01T02:00:14;61.77;;;51.10;;
1693;SDS011;844;47.058;15.472;2023-01-01T02:02:45;62.23;;;47.73;;
1693;SDS011;844;47.058;15.472;2023-01-01T02:05:18;63.03;;;47.90;;
1693;SDS011;844;47.058;15.472;2023-01-01T02:07:49;61.90;;;47.43;;
1693;SDS011;844;47.058;15.472;2023-01-01T02:10:21;55.80;;;45.23;;
1693;SDS011;844;47.058;15.472;2023-01-01T02:12:52;59.47;;;45.30;;
1693;SDS011;844;47.058;15.472;2023-01-01T02:15:24;56.13;;;43.90;;
1693;SDS011;844;47.058;15.472;2023-01-01T02:17:59;43.30;;;38.77;;
1693;SDS011;844;47.058;15.472;2023-01-01T02:20:33;47.63;;;41.33;;
1693;SDS011;844;47.058;15.472;2023-01-01T02:23:15;53.93;;;42.53;;
1693;SDS011;844;47.058;15.472;2023-01-01T02:26:00;53.37;;;40.67;;
1693;SDS011;844;47.058;15.472;2023-01-01T02:28:46;49.40;;;39.60;;
1693;SDS011;844;47.058;15.472;2023-01-01T02:31:21;55.33;;;41.40;;
1693;SDS011;844;47.058;15.472;2023-01-01T02:33:55;48.73;;;39.23;;
1693;SDS011;844;47.058;15.472;2023-01-01T02:36:27;53.70;;;44.87;;
1693;SDS011;844;47.058;15.472;2023-01-01T02:39:00;46.03;;;39.03;;
1693;SDS011;844;47.058;15.472;2023-01-01T02:41:32;58.50;;;44.53;;
1693;SDS011;844;47.058;15.472;2023-01-01T02:44:06;49.53;;;41.43;;
1693;SDS011;844;47.058;15.472;2023-01-01T02:46:36;49.17;;;40.30;;
1693;SDS011;844;47.058;15.472;2023-01-01T02:49:05;46.57;;;38.60;;
1693;SDS011;844;47.058;15.472;2023-01-01T02:51:41;52.73;;;41.40;;
1693;SDS011;844;47.058;15.472;2023-01-01T02:54:22;52.00;;;40.77;;
1693;SDS011;844;47.058;15.472;2023-01-01T02:56:58;54.10;;;43.47;;
1693;SDS011;844;47.058;15.472;2023-01-01T02:59:38;54.87;;;43.10;;
1693;SDS011;844;47.058;15.472;2023-01-01T03:02:33;55.40;;;43.10;;
1693;SDS011;844;47.058;15.472;2023-01-01T03:05:17;46.53;;;40.60;;
1693;SDS011;844;47.058;15.472;2023-01-01T03:07:56;54.87;;;40.20;;
1693;SDS011;844;47.058;15.472;2023-01-01T03:10:32;54.20;;;42.23;;
1693;SDS011;844;47.058;15.472;2023-01-01T03:13:10;49.80;;;43.87;;
1693;SDS011;844;47.058;15.472;2023-01-01T03:15:45;54.13;;;41.63;;
1693;SDS011;844;47.058;15.472;2023-01-01T03:18:20;46.40;;;38.43;;
1693;SDS011;844;47.058;15.472;2023-01-01T03:20:52;45.80;;;37.27;;
1693;SDS011;844;47.058;15.472;2023-01-01T03:23:25;47.87;;;36.97;;
1693;SDS011;844;47.058;15.472;2023-01-01T03:25:58;39.40;;;33.67;;
1693;SDS011;844;47.058;15.472;2023-01-01T03:28:31;35.60;;;27.07;;
1693;SDS011;844;47.058;15.472;2023-01-01T03:31:06;29.63;;;26.10;;
1693;SDS011;844;47.058;15.472;2023-01-01T03:33:36;36.03;;;26.50;;
1693;SDS011;844;47.058;15.472;2023-01-01T03:36:08;28.93;;;24.40;;
1693;SDS011;844;47.058;15.472;2023-01-01T03:38:40;32.20;;;25.40;;
1693;SDS011;844;47.058;15.472;2023-01-01T03:41:13;32.17;;;25.23;;
1693;SDS011;844;47.058;15.472;2023-01-01T03:43:48;31.03;;;27.13;;
1693;SDS011;844;47.058;15.472;2023-01-01T03:46:23;34.40;;;26.50;;
1693;SDS011;844;47.058;15.472;2023-01-01T03:48:56;33.70;;;26.70;;
1693;SDS011;844;47.058;15.472;2023-01-01T03:51:44;32.37;;;26.73;;
1693;SDS011;844;47.058;15.472;2023-01-01T03:54:32;36.50;;;27.70;;
1693;SDS011;844;47.058;15.472;2023-01-01T03:57:08;33.20;;;28.37;;
1693;SDS011;844;47.058;15.472;2023-01-01T03:59:42;34.33;;;28.10;;
1693;SDS011;844;47.058;15.472;2023-01-01T04:02:22;30.40;;;24.90;;
1693;SDS011;844;47.058;15.472;2023-01-01T04:04:56;31.27;;;26.00;;
1693;SDS011;844;47.058;15.472;2023-01-01T04:07:28;29.37;;;25.10;;
1693;SDS011;844;47.058;15.472;2023-01-01T04:09:59;35.17;;;25.73;;
1693;SDS011;844;47.058;15.472;2023-01-01T04:12:44;30.63;;;24.20;;
1693;SDS011;844;47.058;15.472;2023-01-01T04:15:15;38.33;;;27.20;;
1693;SDS011;844;47.058;15.472;2023-01-01T04:17:48;32.27;;;25.93;;
1693;SDS011;844;47.058;15.472;2023-01-01T04:20:17;33.20;;;24.50;;
1693;SDS011;844;47.058;15.472;2023-01-01T04:22:47;29.13;;;24.47;;
1693;SDS011;844;47.058;15.472;2023-01-01T04:25:17;29.93;;;26.13;;
1693;SDS011;844;47.058;15.472;2023-01-01T04:27:47;32.57;;;25.60;;
1693;SDS011;844;47.058;15.472;2023-01-01T04:30:17;26.10;;;23.33;;
1693;SDS011;844;47.058;15.472;2023-01-01T04:32:49;32.97;;;24.07;;
1693;SDS011;844;47.058;15.472;2023-01-01T04:35:19;27.73;;;22.87;;
1693;SDS011;844;47.058;15.472;2023-01-01T04:37:49;26.30;;;21.80;;
1693;SDS011;844;47.058;15.472;2023-01-01T04:40:19;24.13;;;21.03;;
1693;SDS011;844;47.058;15.472;2023-01-01T04:42:52;23.37;;;20.83;;
1693;SDS011;844;47.058;15.472;2023-01-01T04:45:22;22.37;;;19.00;;
1693;SDS011;844;47.058;15.472;2023-01-01T04:47:54;28.43;;;19.30;;
1693;SDS011;844;47.058;15.472;2023-01-01T04:50:24;24.37;;;19.87;;
1693;SDS011;844;47.058;15.472;2023-01-01T04:52:54;22.60;;;18.77;;
1693;SDS011;844;47.058;15.472;2023-01-01T04:55:25;23.40;;;19.63;;
1693;SDS011;844;47.058;15.472;2023-01-01T04:57:55;28.00;;;21.37;;
1693;SDS011;844;47.058;15.472;2023-01-01T05:00:26;25.40;;;21.43;;
1693;SDS011;844;47.058;15.472;2023-01-01T05:02:57;25.77;;;22.50;;
1693;SDS011;844;47.058;15.472;2023-01-01T05:05:27;35.00;;;26.53;;
1693;SDS011;844;47.058;15.472;2023-01-01T05:07:57;32.00;;;25.33;;
1693;SDS011;844;47.058;15.472;2023-01-01T05:10:27;36.53;;;27.77;;
1693;SDS011;844;47.058;15.472;2023-01-01T05:12:57;30.97;;;27.57;;
1693;SDS011;844;47.058;15.472;2023-01-01T05:15:27;35.80;;;29.83;;
1693;SDS011;844;47.058;15.472;2023-01-01T05:17:59;32.60;;;28.43;;
1693;SDS011;844;47.058;15.472;2023-01-01T05:20:29;43.30;;;34.53;;
1693;SDS011;844;47.058;15.472;2023-01-01T05:22:59;43.37;;;37.50;;
1693;SDS011;844;47.058;15.472;2023-01-01T05:25:29;44.87;;;35.40;;
1693;SDS011;844;47.058;15.472;2023-01-01T05:27:59;53.13;;;44.23;;
1693;SDS011;844;47.058;15.472;2023-01-01T05:30:29;64.40;;;46.23;;
1693;SDS011;844;47.058;15.472;2023-01-01T05:33:01;62.87;;;48.40;;
1693;SDS011;844;47.058;15.472;2023-01-01T05:35:31;62.00;;;45.77;;
1693;SDS011;844;47.058;15.472;2023-01-01T05:38:01;59.20;;;45.97;;
1693;SDS011;844;47.058;15.472;2023-01-01T05:40:31;49.00;;;41.87;;
1693;SDS011;844;47.058;15.472;2023-01-01T05:43:00;54.20;;;39.33;;
1693;SDS011;844;47.058;15.472;2023-01-01T05:45:30;46.50;;;40.90;;
1693;SDS011;844;47.058;15.472;2023-01-01T05:48:02;49.87;;;44.27;;
1693;SDS011;844;47.058;15.472;2023-01-01T05:50:33;49.23;;;39.30;;
1693;SDS011;844;47.058;15.472;2023-01-01T05:53:03;48.37;;;42.23;;
1693;SDS011;844;47.058;15.472;2023-01-01T05:55:34;47.53;;;42.43;;
1693;SDS011;844;47.058;15.472;2023-01-01T05:58:04;57.50;;;45.00;;
1693;SDS011;844;47.058;15.472;2023-01-01T06:00:33;55.67;;;43.17;;
1693;SDS011;844;47.058;15.472;2023-01-01T06:03:05;50.53;;;42.57;;
1693;SDS011;844;47.058;15.472;2023-01-01T06:05:35;46.60;;;38.73;;
1693;SDS011;844;47.058;15.472;2023-01-01T06:08:05;47.90;;;37.17;;
1693;SDS011;844;47.058;15.472;2023-01-01T06:10:34;44.47;;;35.20;;
1693;SDS011;844;47.058;15.472;2023-01-01T06:13:04;43.20;;;33.27;;
1693;SDS011;844;47.058;15.472;2023-01-01T06:15:39;41.87;;;35.40;;
1693;SDS011;844;47.058;15.472;2023-01-01T06:18:11;38.67;;;31.40;;
1693;SDS011;844;47.058;15.472;2023-01-01T06:20:41;38.63;;;31.60;;
1693;SDS011;844;47.058;15.472;2023-01-01T06:23:10;35.97;;;30.70;;
1693;SDS011;844;47.058;15.472;2023-01-01T06:25:40;46.90;;;36.10;;
1693;SDS011;844;47.058;15.472;2023-01-01T06:28:10;46.43;;;33.47;;
1693;SDS011;844;47.058;15.472;2023-01-01T06:30:40;40.03;;;33.03;;
1693;SDS011;844;47.058;15.472;2023-01-01T06:33:12;34.53;;;30.90;;
1693;SDS011;844;47.058;15.472;2023-01-01T06:35:42;39.50;;;32.63;;
1693;SDS011;844;47.058;15.472;2023-01-01T06:38:11;38.80;;;29.87;;
1693;SDS011;844;47.058;15.472;2023-01-01T06:40:41;37.47;;;30.67;;
1693;SDS011;844;47.058;15.472;2023-01-01T06:43:11;37.07;;;30.77;;
1693;SDS011;844;47.058;15.472;2023-01-01T06:45:40;35.43;;;30.80;;
1693;SDS011;844;47.058;15.472;2023-01-01T06:48:10;38.87;;;30.30;;
1693;SDS011;844;47.058;15.472;2023-01-01T06:50:42;37.33;;;29.30;;
1693;SDS011;844;47.058;15.472;2023-01-01T06:53:11;31.70;;;28.27;;
1693;SDS011;844;47.058;15.472;2023-01-01T06:55:46;32.60;;;27.20;;
1693;SDS011;844;47.058;15.472;2023-01-01T06:58:22;32.80;;;26.17;;
1693;SDS011;844;47.058;15.472;2023-01-01T07:00:52;27.70;;;23.77;;
1693;SDS011;844;47.058;15.472;2023-01-01T07:03:24;27.27;;;22.37;;
1693;SDS011;844;47.058;15.472;2023-01-01T07:05:54;28.63;;;22.17;;
1693;SDS011;844;47.058;15.472;2023-01-01T07:08:24;37.70;;;25.00;;
1693;SDS011;844;47.058;15.472;2023-01-01T07:10:54;24.03;;;20.20;;
1693;SDS011;844;47.058;15.472;2023-01-01T07:13:24;22.77;;;20.33;;
1693;SDS011;844;47.058;15.472;2023-01-01T07:15:55;24.00;;;21.27;;
1693;SDS011;844;47.058;15.472;2023-01-01T07:18:27;23.60;;;21.00;;
1693;SDS011;844;47.058;15.472;2023-01-01T07:20:57;25.20;;;20.87;;
1693;SDS011;844;47.058;15.472;2023-01-01T07:23:30;22.93;;;20.03;;
1693;SDS011;844;47.058;15.472;2023-01-01T07:26:01;24.23;;;21.47;;
1693;SDS011;844;47.058;15.472;2023-01-01T07:28:31;25.37;;;22.67;;
1693;SDS011;844;47.058;15.472;2023-01-01T07:31:01;25.33;;;20.47;;
1693;SDS011;844;47.058;15.472;2023-01-01T07:33:32;24.23;;;21.27;;
1693;SDS011;844;47.058;15.472;2023-01-01T07:36:02;25.43;;;20.73;;
1693;SDS011;844;47.058;15.472;2023-01-01T07:38:32;22.80;;;20.40;;
1693;SDS011;844;47.058;15.472;2023-01-01T07:41:02;23.37;;;18.80;;
1693;SDS011;844;47.058;15.472;2023-01-01T07:43:33;22.60;;;18.10;;
1693;SDS011;844;47.058;15.472;2023-01-01T07:46:03;21.83;;;18.83;;
1693;SDS011;844;47.058;15.472;2023-01-01T07:48:35;25.43;;;20.43;;
1693;SDS011;844;47.058;15.472;2023-01-01T07:51:06;21.10;;;18.90;;
1693;SDS011;844;47.058;15.472;2023-01-01T07:53:36;22.80;;;19.27;;
1693;SDS011;844;47.058;15.472;2023-01-01T07:56:06;21.43;;;19.00;;
1693;SDS011;844;47.058;15.472;2023-01-01T07:58:37;24.23;;;21.63;;
1693;SDS011;844;47.058;15.472;2023-01-01T08:01:08;26.33;;;21.07;;
1693;SDS011;844;47.058;15.472;2023-01-01T08:03:40;25.60;;;20.60;;
1693;SDS011;844;47.058;15.472;2023-01-01T08:06:11;20.17;;;18.07;;
1693;SDS011;844;47.058;15.472;2023-01-01T08:08:41;26.83;;;22.40;;
1693;SDS011;844;47.058;15.472;2023-01-01T08:11:12;22.83;;;20.33;;
1693;SDS011;844;47.058;15.472;2023-01-01T08:13:42;24.20;;;21.27;;
1693;SDS011;844;47.058;15.472;2023-01-01T08:16:13;27.20;;;21.63;;
1693;SDS011;844;47.058;15.472;2023-01-01T08:18:44;26.03;;;22.37;;
1693;SDS011;844;47.058;15.472;2023-01-01T08:21:15;25.30;;;21.03;;
1693;SDS011;844;47.058;15.472;2023-01-01T08:23:45;24.20;;;20.77;;
1693;SDS011;844;47.058;15.472;2023-01-01T08:26:16;23.87;;;19.63;;
1693;SDS011;844;47.058;15.472;2023-01-01T08:28:47;22.33;;;20.07;;
1693;SDS011;844;47.058;15.472;2023-01-01T08:31:23;23.47;;;19.70;;
1693;SDS011;844;47.058;15.472;2023-01-01T08:33:55;26.60;;;21.40;;
1693;SDS011;844;47.058;15.472;2023-01-01T08:36:25;24.00;;;19.53;;
1693;SDS011;844;47.058;15.472;2023-01-01T08:38:55;22.07;;;18.80;;
1693;SDS011;844;47.058;15.472;2023-01-01T08:41:25;23.33;;;19.20;;
1693;SDS011;844;47.058;15.472;2023-01-01T08:43:57;23.30;;;20.90;;
1693;SDS011;844;47.058;15.472;2023-01-01T08:46:28;27.03;;;20.83;;
1693;SDS011;844;47.058;15.472;2023-01-01T08:48:59;23.00;;;18.07;;
1693;SDS011;844;47.058;15.472;2023-01-01T08:51:29;23.00;;;19.73;;
1693;SDS011;844;47.058;15.472;2023-01-01T08:54:00;20.10;;;17.03;;
1693;SDS011;844;47.058;15.472;2023-01-01T08:56:30;19.90;;;17.70;;
1693;SDS011;844;47.058;15.472;2023-01-01T08:58:59;18.70;;;15.53;;
1693;SDS011;844;47.058;15.472;2023-01-01T09:01:30;17.97;;;15.77;;
1693;SDS011;844;47.058;15.472;2023-01-01T09:04:03;16.63;;;14.47;;
1693;SDS011;844;47.058;15.472;2023-01-01T09:06:41;19.67;;;15.70;;
1693;SDS011;844;47.058;15.472;2023-01-01T09:09:11;18.43;;;15.70;;
1693;SDS011;844;47.058;15.472;2023-01-01T09:11:48;31.67;;;25.97;;
1693;SDS011;844;47.058;15.472;2023-01-01T09:14:19;47.27;;;36.87;;
1693;SDS011;844;47.058;15.472;2023-01-01T09:16:50;55.03;;;46.50;;
1693;SDS011;844;47.058;15.472;2023-01-01T09:19:22;61.80;;;48.27;;
1693;SDS011;844;47.058;15.472;2023-01-01T09:21:51;59.23;;;48.20;;
1693;SDS011;844;47.058;15.472;2023-01-01T09:24:22;55.20;;;48.77;;
1693;SDS011;844;47.058;15.472;2023-01-01T09:26:52;53.97;;;48.23;;
1693;SDS011;844;47.058;15.472;2023-01-01T09:29:22;57.80;;;48.50;;
1693;SDS011;844;47.058;15.472;2023-01-01T09:31:52;55.97;;;47.77;;
1693;SDS011;844;47.058;15.472;2023-01-01T09:34:24;61.17;;;47.53;;
1693;SDS011;844;47.058;15.472;2023-01-01T09:36:54;56.37;;;48.67;;
1693;SDS011;844;47.058;15.472;2023-01-01T09:39:24;56.43;;;49.60;;
1693;SDS011;844;47.058;15.472;2023-01-01T09:41:59;52.63;;;46.80;;
1693;SDS011;844;47.058;15.472;2023-01-01T09:44:52;50.87;;;45.60;;
1693;SDS011;844;47.058;15.472;2023-01-01T09:47:29;46.87;;;40.63;;
1693;SDS011;844;47.058;15.472;2023-01-01T09:50:03;50.13;;;43.50;;
1693;SDS011;844;47.058;15.472;2023-01-01T09:52:39;46.37;;;41.27;;
1693;SDS011;844;47.058;15.472;2023-01-01T09:55:14;52.40;;;43.93;;
1693;SDS011;844;47.058;15.472;2023-01-01T09:57:51;51.53;;;46.00;;
1693;SDS011;844;47.058;15.472;2023-01-01T10:00:22;53.77;;;46.37;;
1693;SDS011;844;47.058;15.472;2023-01-01T10:03:00;49.43;;;43.53;;
1693;SDS011;844;47.058;15.472;2023-01-01T10:05:40;56.27;;;46.20;;
1693;SDS011;844;47.058;15.472;2023-01-01T10:08:16;49.57;;;44.23;;
1693;SDS011;844;47.058;15.472;2023-01-01T10:10:55;49.37;;;41.20;;
1693;SDS011;844;47.058;15.472;2023-01-01T10:13:31;49.53;;;39.83;;
1693;SDS011;844;47.058;15.472;2023-01-01T10:16:07;39.10;;;35.07;;
1693;SDS011;844;47.058;15.472;2023-01-01T10:18:49;38.20;;;32.40;;
1693;SDS011;844;47.058;15.472;2023-01-01T10:21:24;41.30;;;33.93;;
1693;SDS011;844;47.058;15.472;2023-01-01T10:23:59;40.33;;;34.17;;
1693;SDS011;844;47.058;15.472;2023-01-01T10:26:30;44.20;;;38.23;;
1693;SDS011;844;47.058;15.472;2023-01-01T10:29:03;50.20;;;39.87;;
1693;SDS011;844;47.058;15.472;2023-01-01T10:31:39;46.60;;;40.63;;
1693;SDS011;844;47.058;15.472;2023-01-01T10:34:12;42.57;;;38.03;;
1693;SDS011;844;47.058;15.472;2023-01-01T10:36:46;49.37;;;42.17;;
1693;SDS011;844;47.058;15.472;2023-01-01T10:39:17;46.90;;;40.20;;
1693;SDS011;844;47.058;15.472;2023-01-01T10:41:47;47.13;;;39.10;;
1693;SDS011;844;47.058;15.472;2023-01-01T10:44:19;40.37;;;32.07;;
1693;SDS011;844;47.058;15.472;2023-01-01T10:46:56;37.13;;;32.17;;
1693;SDS011;844;47.058;15.472;2023-01-01T10:49:27;36.27;;;32.33;;
1693;SDS011;844;47.058;15.472;2023-01-01T10:51:59;30.53;;;27.20;;
1693;SDS011;844;47.058;15.472;2023-01-01T10:54:31;27.63;;;24.77;;
1693;SDS011;844;47.058;15.472;2023-01-01T10:57:12;27.70;;;24.80;;
1693;SDS011;844;47.058;15.472;2023-01-01T10:59:43;29.17;;;25.73;;
1693;SDS011;844;47.058;15.472;2023-01-01T11:02:20;28.00;;;25.37;;
1693;SDS011;844;47.058;15.472;2023-01-01T11:04:52;25.43;;;23.00;;
1693;SDS011;844;47.058;15.472;2023-01-01T11:07:48;26.70;;;23.67;;
1693;SDS011;844;47.058;15.472;2023-01-01T11:10:19;25.87;;;23.07;;
1693;SDS011;844;47.058;15.472;2023-01-01T11:12:51;21.77;;;19.73;;
1693;SDS011;844;47.058;15.472;2023-01-01T11:15:34;20.73;;;18.63;;
1693;SDS011;844;47.058;15.472;2023-01-01T11:18:06;20.60;;;18.40;;
1693;SDS011;844;47.058;15.472;2023-01-01T11:20:39;22.03;;;19.33;;
1693;SDS011;844;47.058;15.472;2023-01-01T11:23:18;16.70;;;15.00;;
1693;SDS011;844;47.058;15.472;2023-01-01T11:25:56;18.67;;;16.73;;
1693;SDS011;844;47.058;15.472;2023-01-01T11:28:28;18.43;;;16.57;;
1693;SDS011;844;47.058;15.472;2023-01-01T11:31:04;17.60;;;16.00;;
1693;SDS011;844;47.058;15.472;2023-01-01T11:33:41;18.03;;;16.30;;
1693;SDS011;844;47.058;15.472;2023-01-01T11:36:19;16.73;;;15.13;;
1693;SDS011;844;47.058;15.472;2023-01-01T11:39:02;18.97;;;17.00;;
1693;SDS011;844;47.058;15.472;2023-01-01T11:41:41;19.17;;;17.37;;
1693;SDS011;844;47.058;15.472;2023-01-01T11:44:20;18.50;;;16.50;;
1693;SDS011;844;47.058;15.472;2023-01-01T11:46:53;18.17;;;16.43;;
1693;SDS011;844;47.058;15.472;2023-01-01T11:49:24;18.70;;;16.90;;
1693;SDS011;844;47.058;15.472;2023-01-01T11:51:55;15.50;;;14.00;;
1693;SDS011;844;47.058;15.472;2023-01-01T11:54:30;16.87;;;14.90;;
1693;SDS011;844;47.058;15.472;2023-01-01T11:57:06;15.57;;;13.70;;
1693;SDS011;844;47.058;15.472;2023-01-01T11:59:42;14.77;;;13.47;;
1693;SDS011;844;47.058;15.472;2023-01-01T12:02:16;15.17;;;13.57;;
1693;SDS011;844;47.058;15.472;2023-01-01T12:04:51;15.70;;;13.60;;
1693;SDS011;844;47.058;15.472;2023-01-01T12:07:24;16.77;;;14.63;;
1693;SDS011;844;47.058;15.472;2023-01-01T12:10:00;22.87;;;17.70;;
1693;SDS011;844;47.058;15.472;2023-01-01T12:12:33;19.70;;;17.63;;
1693;SDS011;844;47.058;15.472;2023-01-01T12:15:05;22.20;;;18.23;;
1693;SDS011;844;47.058;15.472;2023-01-01T12:17:44;15.97;;;13.97;;
1693;SDS011;844;47.058;15.472;2023-01-01T12:20:18;19.37;;;16.33;;
1693;SDS011;844;47.058;15.472;2023-01-01T12:22:53;19.93;;;16.80;;
1693;SDS011;844;47.058;15.472;2023-01-01T12:25:27;17.87;;;16.07;;
1693;SDS011;844;47.058;15.472;2023-01-01T12:28:02;19.07;;;16.70;;
1693;SDS011;844;47.058;15.472;2023-01-01T12:30:38;16.50;;;14.93;;
1693;SDS011;844;47.058;15.472;2023-01-01T12:33:19;18.10;;;16.13;;
1693;SDS011;844;47.058;15.472;2023-01-01T12:36:02;16.20;;;14.60;;
1693;SDS011;844;47.058;15.472;2023-01-01T12:41:49;13.00;;;11.30;;
1693;SDS011;844;47.058;15.472;2023-01-01T12:44:24;13.00;;;11.63;;
1693;SDS011;844;47.058;15.472;2023-01-01T12:47:01;12.70;;;11.40;;
1693;SDS011;844;47.058;15.472;2023-01-01T12:49:44;14.40;;;10.97;;
1693;SDS011;844;47.058;15.472;2023-01-01T12:52:25;15.10;;;12.60;;
1693;SDS011;844;47.058;15.472;2023-01-01T12:58:26;14.93;;;13.63;;
1693;SDS011;844;47.058;15.472;2023-01-01T13:01:02;16.20;;;14.57;;
1693;SDS011;844;47.058;15.472;2023-01-01T13:03:35;15.97;;;14.27;;
1693;SDS011;844;47.058;15.472;2023-01-01T13:06:15;16.93;;;14.07;;
1693;SDS011;844;47.058;15.472;2023-01-01T13:08:55;14.10;;;12.80;;
1693;SDS011;844;47.058;15.472;2023-01-01T13:11:30;14.70;;;13.33;;
1693;SDS011;844;47.058;15.472;2023-01-01T13:14:11;15.37;;;13.83;;
1693;SDS011;844;47.058;15.472;2023-01-01T13:16:43;13.37;;;12.03;;
1693;SDS011;844;47.058;15.472;2023-01-01T13:19:23;12.70;;;11.27;;
1693;SDS011;844;47.058;15.472;2023-01-01T13:21:55;13.27;;;12.07;;
1693;SDS011;844;47.058;15.472;2023-01-01T13:24:25;17.77;;;12.90;;
1693;SDS011;844;47.058;15.472;2023-01-01T13:26:56;15.67;;;13.87;;
1693;SDS011;844;47.058;15.472;2023-01-01T13:29:31;16.27;;;13.57;;
1693;SDS011;844;47.058;15.472;2023-01-01T13:32:03;14.60;;;13.20;;
1693;SDS011;844;47.058;15.472;2023-01-01T13:34:39;15.07;;;13.53;;
1693;SDS011;844;47.058;15.472;2023-01-01T13:37:42;15.27;;;13.67;;
1693;SDS011;844;47.058;15.472;2023-01-01T13:43:29;16.43;;;14.20;;
1693;SDS011;844;47.058;15.472;2023-01-01T13:46:01;15.10;;;13.60;;
1693;SDS011;844;47.058;15.472;2023-01-01T13:48:51;18.17;;;14.50;;
1693;SDS011;844;47.058;15.472;2023-01-01T13:58:12;15.10;;;13.47;;
1693;SDS011;844;47.058;15.472;2023-01-01T14:04:13;18.00;;;13.97;;
1693;SDS011;844;47.058;15.472;2023-01-01T14:06:51;15.40;;;13.07;;
1693;SDS011;844;47.058;15.472;2023-01-01T14:09:23;17.80;;;14.93;;
1693;SDS011;844;47.058;15.472;2023-01-01T14:11:53;19.13;;;14.33;;
1693;SDS011;844;47.058;15.472;2023-01-01T14:14:24;19.10;;;15.53;;
1693;SDS011;844;47.058;15.472;2023-01-01T14:16:58;14.50;;;12.83;;
1693;SDS011;844;47.058;15.472;2023-01-01T14:19:29;15.17;;;13.57;;
1693;SDS011;844;47.058;15.472;2023-01-01T14:21:59;19.20;;;15.03;;
1693;SDS011;844;47.058;15.472;2023-01-01T14:24:29;16.53;;;13.13;;
1693;SDS011;844;47.058;15.472;2023-01-01T14:26:59;18.60;;;15.00;;
1693;SDS011;844;47.058;15.472;2023-01-01T14:29:29;16.70;;;15.00;;
1693;SDS011;844;47.058;15.472;2023-01-01T14:32:12;17.30;;;14.43;;
1693;SDS011;844;47.058;15.472;2023-01-01T14:34:43;16.87;;;14.90;;
1693;SDS011;844;47.058;15.472;2023-01-01T14:37:18;15.83;;;14.00;;
1693;SDS011;844;47.058;15.472;2023-01-01T14:40:07;16.57;;;14.20;;
1693;SDS011;844;47.058;15.472;2023-01-01T14:42:47;14.20;;;12.80;;
1693;SDS011;844;47.058;15.472;2023-01-01T14:45:18;20.13;;;14.73;;
1693;SDS011;844;47.058;15.472;2023-01-01T14:47:51;14.07;;;12.67;;
1693;SDS011;844;47.058;15.472;2023-01-01T14:50:24;13.63;;;12.10;;
1693;SDS011;844;47.058;15.472;2023-01-01T14:52:57;17.87;;;14.67;;
1693;SDS011;844;47.058;15.472;2023-01-01T14:55:32;15.10;;;12.80;;
1693;SDS011;844;47.058;15.472;2023-01-01T14:58:05;14.20;;;12.90;;
1693;SDS011;844;47.058;15.472;2023-01-01T15:00:40;12.80;;;11.50;;
1693;SDS011;844;47.058;15.472;2023-01-01T15:03:13;15.37;;;13.77;;
1693;SDS011;844;47.058;15.472;2023-01-01T15:05:45;16.70;;;14.27;;
1693;SDS011;844;47.058;15.472;2023-01-01T15:08:24;16.03;;;13.70;;
1693;SDS011;844;47.058;15.472;2023-01-01T15:10:54;16.90;;;15.20;;
1693;SDS011;844;47.058;15.472;2023-01-01T15:13:26;15.20;;;13.63;;
1693;SDS011;844;47.058;15.472;2023-01-01T15:16:13;17.73;;;14.77;;
1693;SDS011;844;47.058;15.472;2023-01-01T15:18:46;16.33;;;14.03;;
1693;SDS011;844;47.058;15.472;2023-01-01T15:21:22;18.77;;;15.47;;
1693;SDS011;844;47.058;15.472;2023-01-01T15:24:01;18.67;;;16.70;;
1693;SDS011;844;47.058;15.472;2023-01-01T15:26:36;21.43;;;17.33;;
1693;SDS011;844;47.058;15.472;2023-01-01T15:29:09;19.47;;;17.33;;
1693;SDS011;844;47.058;15.472;2023-01-01T15:31:42;19.97;;;17.97;;
1693;SDS011;844;47.058;15.472;2023-01-01T15:34:23;20.63;;;18.50;;
1693;SDS011;844;47.058;15.472;2023-01-01T15:36:55;22.90;;;18.60;;
1693;SDS011;844;47.058;15.472;2023-01-01T15:39:32;20.80;;;18.90;;
1693;SDS011;844;47.058;15.472;2023-01-01T15:42:30;20.63;;;18.57;;
1693;SDS011;844;47.058;15.472;2023-01-01T15:45:18;20.77;;;18.60;;